sensor_id;sensor_type;location;lat;lon;timestamp;pressure;altitude;pressure_sealevel;temperature;humidity
65758;BME280;52495;52.208;5.158;2023-02-02T00:01:16;102029.78;;;7.55;98.22
65758;BME280;52495;52.208;5.158;2023-02-02T00:03:43;102020.44;;;7.62;97.82
65758;BME280;52495;52.208;5.158;2023-02-02T00:06:10;102030.78;;;7.65;97.58
65758;BME280;52495;52.208;5.158;2023-02-02T00:08:37;102037.59;;;7.63;97.49
65758;BME280;52495;52.208;5.158;2023-02-02T00:11:06;102034.13;;;7.61;97.42
65758;BME280;52495;52.208;5.158;2023-02-02T00:13:33;102034.06;;;7.58;98.57
65758;BME280;52495;52.208;5.158;2023-02-02T00:16:32;102040.09;;;7.58;98.14
65758;BME280;52495;52.208;5.158;2023-02-02T00:19:02;102035.91;;;7.65;98.06
65758;BME280;52495;52.208;5.158;2023-02-02T00:21:29;102029.03;;;7.66;98.30
65758;BME280;52495;52.208;5.158;2023-02-02T00:23:56;102030.84;;;7.71;98.20
65758;BME280;52495;52.208;5.158;2023-02-02T00:26:24;102029.94;;;7.66;98.33
65758;BME280;52495;52.208;5.158;2023-02-02T00:28:51;102030.66;;;7.59;99.48
65758;BME280;52495;52.208;5.158;2023-02-02T00:31:18;102031.50;;;7.56;100.00
65758;BME280;52495;52.208;5.158;2023-02-02T00:33:46;102034.06;;;7.56;100.00
65758;BME280;52495;52.208;5.158;2023-02-02T00:36:13;102033.97;;;7.50;100.00
65758;BME280;52495;52.208;5.158;2023-02-02T00:38:40;102046.72;;;7.44;100.00
65758;BME280;52495;52.208;5.158;2023-02-02T00:41:07;102044.03;;;7.36;100.00
65758;BME280;52495;52.208;5.158;2023-02-02T00:43:35;102041.56;;;7.42;100.00
65758;BME280;52495;52.208;5.158;2023-02-02T00:46:02;102040.72;;;7.45;100.00
65758;BME280;52495;52.208;5.158;2023-02-02T00:48:28;102039.84;;;7.41;100.00
65758;BME280;52495;52.208;5.158;2023-02-02T00:50:55;102039.00;;;7.44;100.00
65758;BME280;52495;52.208;5.158;2023-02-02T00:53:22;102044.84;;;7.34;99.42
65758;BME280;52495;52.208;5.158;2023-02-02T00:55:49;102054.22;;;7.30;99.37
65758;BME280;52495;52.208;5.158;2023-02-02T00:58:16;102048.13;;;7.25;98.22
65758;BME280;52495;52.208;5.158;2023-02-02T01:00:44;102037.72;;;7.16;97.76
65758;BME280;52495;52.208;5.158;2023-02-02T01:03:12;102051.34;;;7.11;97.62
65758;BME280;52495;52.208;5.158;2023-02-02T01:05:38;102043.47;;;7.02;97.65
65758;BME280;52495;52.208;5.158;2023-02-02T01:08:05;102041.72;;;6.98;97.43
65758;BME280;52495;52.208;5.158;2023-02-02T01:10:32;102041.81;;;7.04;97.86
65758;BME280;52495;52.208;5.158;2023-02-02T01:12:59;102055.41;;;6.97;97.97
65758;BME280;52495;52.208;5.158;2023-02-02T01:15:26;102050.13;;;6.91;98.38
65758;BME280;52495;52.208;5.158;2023-02-02T01:17:56;102055.25;;;6.89;98.67
65758;BME280;52495;52.208;5.158;2023-02-02T01:20:23;102060.53;;;6.97;98.35
65758;BME280;52495;52.208;5.158;2023-02-02T01:22:50;102065.31;;;6.78;99.77
65758;BME280;52495;52.208;5.158;2023-02-02T01:25:17;102050.00;;;6.84;100.00
65758;BME280;52495;52.208;5.158;2023-02-02T01:27:44;102055.16;;;6.84;100.00
65758;BME280;52495;52.208;5.158;2023-02-02T01:30:11;102047.38;;;6.80;100.00
65758;BME280;52495;52.208;5.158;2023-02-02T01:32:39;102046.47;;;6.76;100.00
65758;BME280;52495;52.208;5.158;2023-02-02T01:35:07;102045.63;;;6.77;100.00
65758;BME280;52495;52.208;5.158;2023-02-02T01:37:35;102054.22;;;6.79;100.00
65758;BME280;52495;52.208;5.158;2023-02-02T01:40:06;102046.59;;;6.82;100.00
65758;BME280;52495;52.208;5.158;2023-02-02T01:42:33;102047.25;;;6.72;100.00
65758;BME280;52495;52.208;5.158;2023-02-02T01:45:15;102048.13;;;6.73;100.00
65758;BME280;52495;52.208;5.158;2023-02-02T01:47:44;102048.00;;;6.68;100.00
65758;BME280;52495;52.208;5.158;2023-02-02T01:50:18;102055.69;;;6.66;100.00
65758;BME280;52495;52.208;5.158;2023-02-02T01:52:48;102047.16;;;6.67;100.00
65758;BME280;52495;52.208;5.158;2023-02-02T01:55:20;102057.41;;;6.66;100.00
65758;BME280;52495;52.208;5.158;2023-02-02T01:57:52;102054.78;;;6.64;100.00
65758;BME280;52495;52.208;5.158;2023-02-02T02:00:20;102065.94;;;6.65;100.00
65758;BME280;52495;52.208;5.158;2023-02-02T02:02:51;102051.47;;;6.70;100.00
65758;BME280;52495;52.208;5.158;2023-02-02T02:05:26;102059.31;;;6.78;100.00
65758;BME280;52495;52.208;5.158;2023-02-02T02:07:59;102045.66;;;6.79;100.00
65758;BME280;52495;52.208;5.158;2023-02-02T02:10:28;102049.09;;;6.81;100.00
65758;BME280;52495;52.208;5.158;2023-02-02T02:12:56;102048.28;;;6.83;100.00
65758;BME280;52495;52.208;5.158;2023-02-02T02:15:24;102044.06;;;6.86;100.00
65758;BME280;52495;52.208;5.158;2023-02-02T02:18:20;102046.66;;;6.87;100.00
65758;BME280;52495;52.208;5.158;2023-02-02T02:21:13;102043.28;;;6.90;100.00
65758;BME280;52495;52.208;5.158;2023-02-02T02:24:15;102045.00;;;6.92;100.00
65758;BME280;52495;52.208;5.158;2023-02-02T02:30:32;102041.53;;;6.89;100.00
65758;BME280;52495;52.208;5.158;2023-02-02T02:33:04;102036.41;;;6.89;100.00
65758;BME280;52495;52.208;5.158;2023-02-02T02:35:36;102034.78;;;6.94;100.00
65758;BME280;52495;52.208;5.158;2023-02-02T02:38:10;102035.56;;;6.88;100.00
65758;BME280;52495;52.208;5.158;2023-02-02T02:40:46;102034.03;;;7.01;100.00
65758;BME280;52495;52.208;5.158;2023-02-02T02:43:19;102022.06;;;7.00;100.00
65758;BME280;52495;52.208;5.158;2023-02-02T02:45:48;102023.75;;;6.98;100.00
65758;BME280;52495;52.208;5.158;2023-02-02T02:48:18;102010.91;;;6.99;100.00
65758;BME280;52495;52.208;5.158;2023-02-02T02:50:45;102023.81;;;7.03;100.00
65758;BME280;52495;52.208;5.158;2023-02-02T02:53:15;102018.63;;;7.01;100.00
65758;BME280;52495;52.208;5.158;2023-02-02T02:55:48;102021.31;;;7.07;100.00
65758;BME280;52495;52.208;5.158;2023-02-02T02:58:25;102024.72;;;7.06;100.00
65758;BME280;52495;52.208;5.158;2023-02-02T03:01:05;102023.88;;;7.06;100.00
65758;BME280;52495;52.208;5.158;2023-02-02T03:03:59;102025.59;;;7.07;100.00
65758;BME280;52495;52.208;5.158;2023-02-02T03:06:37;102041.84;;;7.07;100.00
65758;BME280;52495;52.208;5.158;2023-02-02T03:09:09;102041.94;;;7.12;100.00
65758;BME280;52495;52.208;5.158;2023-02-02T03:11:37;102053.09;;;7.14;100.00
65758;BME280;52495;52.208;5.158;2023-02-02T03:14:04;102043.81;;;7.22;100.00
65758;BME280;52495;52.208;5.158;2023-02-02T03:16:34;102056.63;;;7.19;100.00
65758;BME280;52495;52.208;5.158;2023-02-02T03:19:03;102049.75;;;7.20;100.00
65758;BME280;52495;52.208;5.158;2023-02-02T03:21:31;102047.22;;;7.21;100.00
65758;BME280;52495;52.208;5.158;2023-02-02T03:23:58;102053.25;;;7.23;100.00
65758;BME280;52495;52.208;5.158;2023-02-02T03:26:27;102066.13;;;7.25;100.00
65758;BME280;52495;52.208;5.158;2023-02-02T03:28:55;102055.00;;;7.26;100.00
65758;BME280;52495;52.208;5.158;2023-02-02T03:31:23;102056.75;;;7.27;100.00
65758;BME280;52495;52.208;5.158;2023-02-02T03:33:51;102055.13;;;7.35;100.00
65758;BME280;52495;52.208;5.158;2023-02-02T03:36:20;102053.44;;;7.36;100.00
65758;BME280;52495;52.208;5.158;2023-02-02T03:38:47;102050.91;;;7.37;99.20
65758;BME280;52495;52.208;5.158;2023-02-02T03:41:14;102045.81;;;7.40;99.62
65758;BME280;52495;52.208;5.158;2023-02-02T03:43:41;102048.41;;;7.42;98.87
65758;BME280;52495;52.208;5.158;2023-02-02T03:46:08;102053.56;;;7.42;99.23
65758;BME280;52495;52.208;5.158;2023-02-02T03:48:35;102056.13;;;7.42;98.87
65758;BME280;52495;52.208;5.158;2023-02-02T03:51:05;102052.84;;;7.52;98.44
65758;BME280;52495;52.208;5.158;2023-02-02T03:53:34;102054.59;;;7.55;97.69
65758;BME280;52495;52.208;5.158;2023-02-02T03:56:01;102044.25;;;7.50;97.79
65758;BME280;52495;52.208;5.158;2023-02-02T03:58:27;102044.25;;;7.50;97.98
65758;BME280;52495;52.208;5.158;2023-02-02T04:00:58;102048.44;;;7.45;97.78
65758;BME280;52495;52.208;5.158;2023-02-02T04:03:25;102043.50;;;7.57;97.04
65758;BME280;52495;52.208;5.158;2023-02-02T04:05:52;102053.75;;;7.54;97.27
65758;BME280;52495;52.208;5.158;2023-02-02T04:08:18;102047.66;;;7.49;97.09
65758;BME280;52495;52.208;5.158;2023-02-02T04:10:47;102043.50;;;7.57;97.04
65758;BME280;52495;52.208;5.158;2023-02-02T04:13:13;102051.94;;;7.50;97.12
65758;BME280;52495;52.208;5.158;2023-02-02T04:15:40;102042.72;;;7.63;96.89
65758;BME280;52495;52.208;5.158;2023-02-02T04:18:07;102038.31;;;7.56;96.30
65758;BME280;52495;52.208;5.158;2023-02-02T04:20:34;102041.78;;;7.56;96.74
65758;BME280;52495;52.208;5.158;2023-02-02T04:23:01;102027.13;;;7.51;96.62
65758;BME280;52495;52.208;5.158;2023-02-02T04:25:27;102030.63;;;7.56;96.67
65758;BME280;52495;52.208;5.158;2023-02-02T04:27:56;102040.00;;;7.51;97.06
65758;BME280;52495;52.208;5.158;2023-02-02T04:30:23;102037.44;;;7.54;96.94
65758;BME280;52495;52.208;5.158;2023-02-02T04:32:49;102045.97;;;7.51;97.03
65758;BME280;52495;52.208;5.158;2023-02-02T04:35:16;102052.00;;;7.53;96.12
65758;BME280;52495;52.208;5.158;2023-02-02T04:37:43;102040.94;;;7.59;96.49
65758;BME280;52495;52.208;5.158;2023-02-02T04:40:11;102051.28;;;7.62;96.39
65758;BME280;52495;52.208;5.158;2023-02-02T04:42:38;102040.91;;;7.56;96.41
65758;BME280;52495;52.208;5.158;2023-02-02T04:45:08;102056.53;;;7.71;95.60
65758;BME280;52495;52.208;5.158;2023-02-02T04:47:35;102052.28;;;7.73;95.42
65758;BME280;52495;52.208;5.158;2023-02-02T04:50:01;102066.75;;;7.65;95.92
65758;BME280;52495;52.208;5.158;2023-02-02T04:52:28;102061.53;;;7.60;95.95
65758;BME280;52495;52.208;5.158;2023-02-02T04:54:55;102056.63;;;7.78;95.37
65758;BME280;52495;52.208;5.158;2023-02-02T04:57:22;102060.78;;;7.69;95.70
65758;BME280;52495;52.208;5.158;2023-02-02T04:59:49;102067.66;;;7.69;96.08
65758;BME280;52495;52.208;5.158;2023-02-02T05:02:17;102074.47;;;7.65;96.61
65758;BME280;52495;52.208;5.158;2023-02-02T05:04:45;102069.34;;;7.67;96.81
65758;BME280;52495;52.208;5.158;2023-02-02T05:07:12;102072.78;;;7.69;96.46
65758;BME280;52495;52.208;5.158;2023-02-02T05:09:39;102083.06;;;7.67;96.75
65758;BME280;52495;52.208;5.158;2023-02-02T05:12:06;102076.97;;;7.62;96.77
65758;BME280;52495;52.208;5.158;2023-02-02T05:14:33;102072.78;;;7.67;97.15
65758;BME280;52495;52.208;5.158;2023-02-02T05:16:59;102065.09;;;7.69;96.93
65758;BME280;52495;52.208;5.158;2023-02-02T05:19:28;102071.00;;;7.63;97.32
65758;BME280;52495;52.208;5.158;2023-02-02T05:21:55;102070.22;;;7.70;96.46
65758;BME280;52495;52.208;5.158;2023-02-02T05:24:21;102065.91;;;7.68;96.96
65758;BME280;52495;52.208;5.158;2023-02-02T05:26:48;102073.59;;;7.65;97.35
65758;BME280;52495;52.208;5.158;2023-02-02T05:29:17;102073.53;;;7.60;97.50
65758;BME280;52495;52.208;5.158;2023-02-02T05:31:43;102071.00;;;7.63;97.46
65758;BME280;52495;52.208;5.158;2023-02-02T05:34:10;102077.88;;;7.64;97.35
65758;BME280;52495;52.208;5.158;2023-02-02T05:36:39;102071.00;;;7.63;97.56
65758;BME280;52495;52.208;5.158;2023-02-02T05:39:06;102059.88;;;7.64;97.43
65758;BME280;52495;52.208;5.158;2023-02-02T05:41:33;102082.13;;;7.64;97.71
65758;BME280;52495;52.208;5.158;2023-02-02T05:44:00;102071.84;;;7.64;97.58
65758;BME280;52495;52.208;5.158;2023-02-02T05:46:27;102074.41;;;7.62;97.97
65758;BME280;52495;52.208;5.158;2023-02-02T05:48:53;102081.19;;;7.57;98.50
65758;BME280;52495;52.208;5.158;2023-02-02T05:51:23;102084.69;;;7.62;97.95
65758;BME280;52495;52.208;5.158;2023-02-02T05:53:53;102076.88;;;7.54;99.39
65758;BME280;52495;52.208;5.158;2023-02-02T05:56:20;102081.13;;;7.54;99.26
65758;BME280;52495;52.208;5.158;2023-02-02T05:58:47;102076.00;;;7.54;99.89
65758;BME280;52495;52.208;5.158;2023-02-02T06:01:14;102079.38;;;7.50;100.00
65758;BME280;52495;52.208;5.158;2023-02-02T06:03:41;102084.53;;;7.53;100.00
65758;BME280;52495;52.208;5.158;2023-02-02T06:06:08;102076.75;;;7.48;100.00
65758;BME280;52495;52.208;5.158;2023-02-02T06:08:35;102077.59;;;7.47;100.00
65758;BME280;52495;52.208;5.158;2023-02-02T06:11:09;102082.81;;;7.52;100.00
65758;BME280;52495;52.208;5.158;2023-02-02T06:13:36;102090.50;;;7.49;100.00
65758;BME280;52495;52.208;5.158;2023-02-02T06:16:03;102090.44;;;7.46;100.00
65758;BME280;52495;52.208;5.158;2023-02-02T06:18:30;102090.50;;;7.52;100.00
65758;BME280;52495;52.208;5.158;2023-02-02T06:20:57;102096.47;;;7.49;100.00
65758;BME280;52495;52.208;5.158;2023-02-02T06:23:27;102098.22;;;7.50;100.00
65758;BME280;52495;52.208;5.158;2023-02-02T06:25:54;102104.13;;;7.46;100.00
65758;BME280;52495;52.208;5.158;2023-02-02T06:28:22;102095.56;;;7.46;100.00
65758;BME280;52495;52.208;5.158;2023-02-02T06:30:49;102093.91;;;7.48;100.00
65758;BME280;52495;52.208;5.158;2023-02-02T06:33:15;102095.66;;;7.52;100.00
65758;BME280;52495;52.208;5.158;2023-02-02T06:35:42;102110.13;;;7.45;100.00
65758;BME280;52495;52.208;5.158;2023-02-02T06:38:09;102113.56;;;7.46;100.00
65758;BME280;52495;52.208;5.158;2023-02-02T06:40:36;102118.69;;;7.46;100.00
65758;BME280;52495;52.208;5.158;2023-02-02T06:43:03;102125.69;;;7.54;100.00
65758;BME280;52495;52.208;5.158;2023-02-02T06:45:31;102127.31;;;7.48;100.00
65758;BME280;52495;52.208;5.158;2023-02-02T06:48:02;102131.56;;;7.46;100.00
65758;BME280;52495;52.208;5.158;2023-02-02T06:50:35;102148.50;;;7.34;100.00
65758;BME280;52495;52.208;5.158;2023-02-02T06:53:03;102122.91;;;7.40;100.00
65758;BME280;52495;52.208;5.158;2023-02-02T06:55:30;102145.09;;;7.37;100.00
65758;BME280;52495;52.208;5.158;2023-02-02T06:57:56;102136.56;;;7.39;100.00
65758;BME280;52495;52.208;5.158;2023-02-02T07:00:24;102133.16;;;7.40;100.00
65758;BME280;52495;52.208;5.158;2023-02-02T07:02:53;102131.50;;;7.42;100.00
65758;BME280;52495;52.208;5.158;2023-02-02T07:05:19;102126.31;;;7.39;100.00
65758;BME280;52495;52.208;5.158;2023-02-02T07:07:48;102120.19;;;7.33;100.00
65758;BME280;52495;52.208;5.158;2023-02-02T07:10:16;102124.47;;;7.32;100.00
65758;BME280;52495;52.208;5.158;2023-02-02T07:12:43;102121.88;;;7.31;100.00
65758;BME280;52495;52.208;5.158;2023-02-02T07:15:10;102123.53;;;7.27;100.00
65758;BME280;52495;52.208;5.158;2023-02-02T07:17:37;102136.50;;;7.33;100.00
65758;BME280;52495;52.208;5.158;2023-02-02T07:20:06;102132.19;;;7.34;100.00
65758;BME280;52495;52.208;5.158;2023-02-02T07:22:33;102138.25;;;7.37;100.00
65758;BME280;52495;52.208;5.158;2023-02-02T07:25:00;102139.91;;;7.35;100.00
65758;BME280;52495;52.208;5.158;2023-02-02T07:27:26;102145.13;;;7.38;100.00
65758;BME280;52495;52.208;5.158;2023-02-02T07:29:53;102151.09;;;7.36;100.00
65758;BME280;52495;52.208;5.158;2023-02-02T07:32:20;102162.31;;;7.41;100.00
65758;BME280;52495;52.208;5.158;2023-02-02T07:34:47;102161.47;;;7.42;100.00
65758;BME280;52495;52.208;5.158;2023-02-02T07:37:16;102156.41;;;7.47;100.00
65758;BME280;52495;52.208;5.158;2023-02-02T07:39:43;102156.50;;;7.53;100.00
65758;BME280;52495;52.208;5.158;2023-02-02T07:42:10;102162.47;;;7.52;100.00
65758;BME280;52495;52.208;5.158;2023-02-02T07:44:38;102146.16;;;7.48;100.00
65758;BME280;52495;52.208;5.158;2023-02-02T07:47:05;102168.44;;;7.48;100.00
65758;BME280;52495;52.208;5.158;2023-02-02T07:49:32;102158.16;;;7.48;100.00
65758;BME280;52495;52.208;5.158;2023-02-02T07:51:59;102176.16;;;7.49;99.33
65758;BME280;52495;52.208;5.158;2023-02-02T07:54:27;102183.91;;;7.51;99.61
65758;BME280;52495;52.208;5.158;2023-02-02T07:56:56;102183.94;;;7.54;99.50
65758;BME280;52495;52.208;5.158;2023-02-02T07:59:23;102186.47;;;7.52;99.33
65758;BME280;52495;52.208;5.158;2023-02-02T08:01:49;102185.66;;;7.55;98.63
65758;BME280;52495;52.208;5.158;2023-02-02T08:04:16;102189.91;;;7.53;98.90
65758;BME280;52495;52.208;5.158;2023-02-02T08:06:44;102184.88;;;7.57;98.26
65758;BME280;52495;52.208;5.158;2023-02-02T08:09:12;102171.13;;;7.57;98.35
65758;BME280;52495;52.208;5.158;2023-02-02T08:11:40;102187.56;;;7.65;97.38
65758;BME280;52495;52.208;5.158;2023-02-02T08:14:09;102184.06;;;7.62;97.46
65758;BME280;52495;52.208;5.158;2023-02-02T08:16:37;102183.16;;;7.58;97.69
65758;BME280;52495;52.208;5.158;2023-02-02T08:19:04;102184.81;;;7.56;97.42
65758;BME280;52495;52.208;5.158;2023-02-02T08:21:32;102194.38;;;7.63;97.22
65758;BME280;52495;52.208;5.158;2023-02-02T08:23:59;102200.44;;;7.67;97.19
65758;BME280;52495;52.208;5.158;2023-02-02T08:26:28;102203.00;;;7.65;97.13
65758;BME280;52495;52.208;5.158;2023-02-02T08:28:57;102194.31;;;7.60;96.79
65758;BME280;52495;52.208;5.158;2023-02-02T08:31:26;102218.34;;;7.62;96.94
65758;BME280;52495;52.208;5.158;2023-02-02T08:33:53;102213.22;;;7.62;96.99
65758;BME280;52495;52.208;5.158;2023-02-02T08:36:24;102218.47;;;7.68;96.75
65758;BME280;52495;52.208;5.158;2023-02-02T08:38:51;102218.47;;;7.70;96.89
65758;BME280;52495;52.208;5.158;2023-02-02T08:41:20;102220.16;;;7.69;96.86
65758;BME280;52495;52.208;5.158;2023-02-02T08:43:47;102226.22;;;7.71;96.73
65758;BME280;52495;52.208;5.158;2023-02-02T08:46:17;102225.34;;;7.71;96.00
65758;BME280;52495;52.208;5.158;2023-02-02T08:48:44;102229.66;;;7.72;96.32
65758;BME280;52495;52.208;5.158;2023-02-02T08:51:13;102234.22;;;7.88;95.02
65758;BME280;52495;52.208;5.158;2023-02-02T08:53:40;102228.94;;;7.81;95.65
65758;BME280;52495;52.208;5.158;2023-02-02T08:56:09;102219.56;;;7.83;95.69
65758;BME280;52495;52.208;5.158;2023-02-02T08:58:37;102228.97;;;7.82;96.02
65758;BME280;52495;52.208;5.158;2023-02-02T09:01:05;102234.94;;;7.80;95.59
65758;BME280;52495;52.208;5.158;2023-02-02T09:03:34;102240.97;;;7.82;96.08
65758;BME280;52495;52.208;5.158;2023-02-02T09:06:05;102245.31;;;7.86;95.98
65758;BME280;52495;52.208;5.158;2023-02-02T09:08:32;102245.22;;;7.80;96.62
65758;BME280;52495;52.208;5.158;2023-02-02T09:11:03;102246.06;;;7.80;96.22
65758;BME280;52495;52.208;5.158;2023-02-02T09:13:30;102248.09;;;8.00;95.39
65758;BME280;52495;52.208;5.158;2023-02-02T09:15:58;102248.81;;;7.91;95.97
65758;BME280;52495;52.208;5.158;2023-02-02T09:18:26;102258.34;;;7.95;95.87
65758;BME280;52495;52.208;5.158;2023-02-02T09:20:58;102256.59;;;7.94;95.97
65758;BME280;52495;52.208;5.158;2023-02-02T09:23:25;102262.69;;;8.01;96.27
65758;BME280;52495;52.208;5.158;2023-02-02T09:25:52;102267.78;;;7.96;96.41
65758;BME280;52495;52.208;5.158;2023-02-02T09:28:19;102267.78;;;7.96;96.79
65758;BME280;52495;52.208;5.158;2023-02-02T09:30:46;102272.97;;;7.99;97.23
65758;BME280;52495;52.208;5.158;2023-02-02T09:33:13;102270.41;;;8.01;96.26
65758;BME280;52495;52.208;5.158;2023-02-02T09:35:40;102276.38;;;7.98;96.91
65758;BME280;52495;52.208;5.158;2023-02-02T09:38:08;102280.59;;;7.95;96.28
65758;BME280;52495;52.208;5.158;2023-02-02T09:40:35;102273.06;;;8.04;97.10
65758;BME280;52495;52.208;5.158;2023-02-02T09:43:07;102278.09;;;7.98;97.06
65758;BME280;52495;52.208;5.158;2023-02-02T09:45:46;102276.34;;;7.95;96.83
65758;BME280;52495;52.208;5.158;2023-02-02T09:48:23;102269.47;;;7.94;97.47
65758;BME280;52495;52.208;5.158;2023-02-02T09:50:56;102288.38;;;7.98;96.70
65758;BME280;52495;52.208;5.158;2023-02-02T09:53:37;102284.13;;;8.00;97.28
65758;BME280;52495;52.208;5.158;2023-02-02T09:56:07;102293.44;;;7.92;97.77
65758;BME280;52495;52.208;5.158;2023-02-02T09:58:40;102292.47;;;7.88;97.51
65758;BME280;52495;52.208;5.158;2023-02-02T10:01:12;102296.13;;;7.99;97.96
65758;BME280;52495;52.208;5.158;2023-02-02T10:03:42;102300.44;;;8.00;97.54
65758;BME280;52495;52.208;5.158;2023-02-02T10:06:21;102297.03;;;8.01;97.10
65758;BME280;52495;52.208;5.158;2023-02-02T10:08:54;102306.31;;;7.95;97.83
65758;BME280;52495;52.208;5.158;2023-02-02T10:11:33;102304.69;;;8.00;98.16
65758;BME280;52495;52.208;5.158;2023-02-02T10:14:07;102307.97;;;7.91;97.89
65758;BME280;52495;52.208;5.158;2023-02-02T10:16:39;102312.41;;;8.00;97.91
65758;BME280;52495;52.208;5.158;2023-02-02T10:19:10;102314.34;;;8.13;96.96
65758;BME280;52495;52.208;5.158;2023-02-02T10:21:41;102310.97;;;8.16;97.54
65758;BME280;52495;52.208;5.158;2023-02-02T10:24:16;102317.75;;;8.12;97.19
65758;BME280;52495;52.208;5.158;2023-02-02T10:26:46;102315.03;;;8.03;97.44
65758;BME280;52495;52.208;5.158;2023-02-02T10:29:21;102320.38;;;8.15;97.16
65758;BME280;52495;52.208;5.158;2023-02-02T10:32:01;102324.69;;;8.15;96.72
65758;BME280;52495;52.208;5.158;2023-02-02T10:34:36;102324.56;;;8.09;97.59
65758;BME280;52495;52.208;5.158;2023-02-02T10:37:21;102327.13;;;8.09;97.07
65758;BME280;52495;52.208;5.158;2023-02-02T10:40:11;102324.69;;;8.15;96.92
65758;BME280;52495;52.208;5.158;2023-02-02T10:42:50;102324.81;;;8.24;96.95
65758;BME280;52495;52.208;5.158;2023-02-02T10:45:35;102322.16;;;8.18;96.32
65758;BME280;52495;52.208;5.158;2023-02-02T10:48:11;102327.47;;;8.29;96.73
65758;BME280;52495;52.208;5.158;2023-02-02T10:50:41;102339.53;;;8.33;96.49
65758;BME280;52495;52.208;5.158;2023-02-02T10:53:13;102337.88;;;8.35;95.35
65758;BME280;52495;52.208;5.158;2023-02-02T10:55:46;102332.59;;;8.29;96.10
65758;BME280;52495;52.208;5.158;2023-02-02T10:58:22;102331.75;;;8.28;96.04
65758;BME280;52495;52.208;5.158;2023-02-02T11:00:52;102328.47;;;8.37;95.82
65758;BME280;52495;52.208;5.158;2023-02-02T11:03:22;102314.72;;;8.35;95.42
65758;BME280;52495;52.208;5.158;2023-02-02T11:05:50;102323.25;;;8.34;94.82
65758;BME280;52495;52.208;5.158;2023-02-02T11:08:37;102320.50;;;8.22;94.76
65758;BME280;52495;52.208;5.158;2023-02-02T11:11:15;102321.53;;;8.33;95.02
65758;BME280;52495;52.208;5.158;2023-02-02T11:13:48;102343.91;;;8.35;95.09
65758;BME280;52495;52.208;5.158;2023-02-02T11:16:22;102324.28;;;8.44;94.93
65758;BME280;52495;52.208;5.158;2023-02-02T11:18:51;102327.63;;;8.38;94.85
65758;BME280;52495;52.208;5.158;2023-02-02T11:21:21;102324.22;;;8.39;94.37
65758;BME280;52495;52.208;5.158;2023-02-02T11:23:52;102333.81;;;8.48;94.14
65758;BME280;52495;52.208;5.158;2023-02-02T11:26:22;102324.50;;;8.56;93.17
65758;BME280;52495;52.208;5.158;2023-02-02T11:28:51;102325.19;;;8.47;93.29
65758;BME280;52495;52.208;5.158;2023-02-02T11:31:32;102323.44;;;8.45;93.59
65758;BME280;52495;52.208;5.158;2023-02-02T11:34:14;102333.88;;;8.51;93.21
65758;BME280;52495;52.208;5.158;2023-02-02T11:36:57;102323.59;;;8.53;93.64
65758;BME280;52495;52.208;5.158;2023-02-02T11:39:24;102319.19;;;8.47;93.24
65758;BME280;52495;52.208;5.158;2023-02-02T11:41:58;102330.41;;;8.49;92.76
65758;BME280;52495;52.208;5.158;2023-02-02T11:44:26;102330.34;;;8.47;92.61
65758;BME280;52495;52.208;5.158;2023-02-02T11:46:53;102324.47;;;8.53;92.75
65758;BME280;52495;52.208;5.158;2023-02-02T11:49:22;102331.38;;;8.56;92.34
65758;BME280;52495;52.208;5.158;2023-02-02T11:52:00;102316.72;;;8.52;92.30
65758;BME280;52495;52.208;5.158;2023-02-02T11:54:30;102317.66;;;8.58;91.64
65758;BME280;52495;52.208;5.158;2023-02-02T11:57:02;102319.34;;;8.55;92.38
65758;BME280;52495;52.208;5.158;2023-02-02T11:59:32;102311.56;;;8.52;91.99
65758;BME280;52495;52.208;5.158;2023-02-02T12:02:26;102312.56;;;8.60;92.25
65758;BME280;52495;52.208;5.158;2023-02-02T12:04:55;102315.09;;;8.58;92.15
65758;BME280;52495;52.208;5.158;2023-02-02T12:07:25;102321.91;;;8.53;92.25
65758;BME280;52495;52.208;5.158;2023-02-02T12:09:57;102331.16;;;8.45;92.99
65758;BME280;52495;52.208;5.158;2023-02-02T12:12:36;102327.75;;;8.46;93.18
65758;BME280;52495;52.208;5.158;2023-02-02T12:15:17;102321.75;;;8.45;93.44
65758;BME280;52495;52.208;5.158;2023-02-02T12:17:51;102322.69;;;8.49;94.50
65758;BME280;52495;52.208;5.158;2023-02-02T12:20:33;102316.88;;;8.61;93.90
65758;BME280;52495;52.208;5.158;2023-02-02T12:23:15;102314.19;;;8.55;93.38
65758;BME280;52495;52.208;5.158;2023-02-02T12:26:04;102309.94;;;8.58;93.47
65758;BME280;52495;52.208;5.158;2023-02-02T12:28:48;102314.88;;;8.46;93.79
65758;BME280;52495;52.208;5.158;2023-02-02T12:31:21;102307.09;;;8.43;93.53
65758;BME280;52495;52.208;5.158;2023-02-02T12:33:59;102306.25;;;8.44;94.13
65758;BME280;52495;52.208;5.158;2023-02-02T12:36:38;102303.44;;;8.28;93.23
65758;BME280;52495;52.208;5.158;2023-02-02T12:39:18;102310.59;;;8.46;93.59
65758;BME280;52495;52.208;5.158;2023-02-02T12:44:44;102315.81;;;8.48;93.09
65758;BME280;52495;52.208;5.158;2023-02-02T12:47:19;102308.88;;;8.45;93.30
65758;BME280;52495;52.208;5.158;2023-02-02T12:50:06;102309.63;;;8.40;93.92
65758;BME280;52495;52.208;5.158;2023-02-02T12:52:49;102313.16;;;8.45;93.03
65758;BME280;52495;52.208;5.158;2023-02-02T12:55:24;102312.41;;;8.50;93.56
65758;BME280;52495;52.208;5.158;2023-02-02T12:58:05;102303.63;;;8.41;94.29
65758;BME280;52495;52.208;5.158;2023-02-02T13:00:59;102294.19;;;8.40;95.81
65758;BME280;52495;52.208;5.158;2023-02-02T13:03:40;102295.00;;;8.35;96.63
65758;BME280;52495;52.208;5.158;2023-02-02T13:06:32;102296.69;;;8.33;97.90
65758;BME280;52495;52.208;5.158;2023-02-02T13:09:07;102291.31;;;8.21;100.00
65758;BME280;52495;52.208;5.158;2023-02-02T13:11:39;102296.47;;;8.21;100.00
65758;BME280;52495;52.208;5.158;2023-02-02T13:14:10;102295.59;;;8.19;100.00
65758;BME280;52495;52.208;5.158;2023-02-02T13:16:43;102297.22;;;8.15;100.00
65758;BME280;52495;52.208;5.158;2023-02-02T13:19:16;102310.03;;;8.11;100.00
65758;BME280;52495;52.208;5.158;2023-02-02T13:21:47;102305.78;;;8.13;100.00